sensor_id;sensor_type;location;lat;lon;timestamp;P1;durP1;ratioP1;P2;durP2;ratioP2
62911;SDS011;49111;51.028;4.218;2023-02-28T07:06:52;11.70;;;5.78;;
62911;SDS011;49111;51.028;4.218;2023-02-28T07:09:21;10.75;;;6.55;;
62911;SDS011;49111;51.028;4.218;2023-02-28T07:11:46;11.02;;;6.25;;
62911;SDS011;49111;51.028;4.218;2023-02-28T07:14:12;13.73;;;7.43;;
62911;SDS011;49111;51.028;4.218;2023-02-28T07:16:38;12.57;;;6.05;;
62911;SDS011;49111;51.028;4.218;2023-02-28T07:19:04;9.30;;;5.82;;
62911;SDS011;49111;51.028;4.218;2023-02-28T07:21:29;8.07;;;5.00;;
62911;SDS011;49111;51.028;4.218;2023-02-28T07:23:55;11.73;;;6.18;;
62911;SDS011;49111;51.028;4.218;2023-02-28T07:26:21;8.20;;;5.05;;
62911;SDS011;49111;51.028;4.218;2023-02-28T07:28:47;8.15;;;5.90;;
62911;SDS011;49111;51.028;4.218;2023-02-28T07:31:14;10.00;;;5.55;;
62911;SDS011;49111;51.028;4.218;2023-02-28T07:33:41;8.43;;;5.90;;
62911;SDS011;49111;51.028;4.218;2023-02-28T07:36:08;10.00;;;5.80;;
62911;SDS011;49111;51.028;4.218;2023-02-28T07:41:08;10.23;;;6.10;;
62911;SDS011;49111;51.028;4.218;2023-02-28T07:43:34;8.88;;;5.35;;
62911;SDS011;49111;51.028;4.218;2023-02-28T07:46:01;12.60;;;5.93;;
62911;SDS011;49111;51.028;4.218;2023-02-28T07:48:32;9.88;;;5.47;;
62911;SDS011;49111;51.028;4.218;2023-02-28T07:50:58;12.88;;;6.65;;
62911;SDS011;49111;51.028;4.218;2023-02-28T07:53:25;8.95;;;5.60;;
62911;SDS011;49111;51.028;4.218;2023-02-28T07:55:59;10.35;;;5.43;;
62911;SDS011;49111;51.028;4.218;2023-02-28T07:58:26;8.27;;;5.13;;
62911;SDS011;49111;51.028;4.218;2023-02-28T08:00:53;8.98;;;5.10;;
62911;SDS011;49111;51.028;4.218;2023-02-28T08:03:20;8.15;;;5.32;;
62911;SDS011;49111;51.028;4.218;2023-02-28T08:05:47;10.35;;;5.63;;
62911;SDS011;49111;51.028;4.218;2023-02-28T08:08:13;8.00;;;4.63;;
62911;SDS011;49111;51.028;4.218;2023-02-28T08:10:40;10.40;;;5.00;;
62911;SDS011;49111;51.028;4.218;2023-02-28T08:13:06;9.27;;;5.15;;
62911;SDS011;49111;51.028;4.218;2023-02-28T08:15:32;8.60;;;4.50;;
62911;SDS011;49111;51.028;4.218;2023-02-28T08:17:58;9.43;;;6.00;;
62911;SDS011;49111;51.028;4.218;2023-02-28T08:20:24;8.10;;;4.03;;
62911;SDS011;49111;51.028;4.218;2023-02-28T08:22:51;9.43;;;5.60;;
62911;SDS011;49111;51.028;4.218;2023-02-28T08:25:17;6.63;;;3.88;;
62911;SDS011;49111;51.028;4.218;2023-02-28T08:27:43;6.47;;;3.63;;
62911;SDS011;49111;51.028;4.218;2023-02-28T08:30:12;6.53;;;3.90;;
62911;SDS011;49111;51.028;4.218;2023-02-28T08:32:39;7.47;;;4.30;;
62911;SDS011;49111;51.028;4.218;2023-02-28T08:35:05;7.93;;;4.35;;
62911;SDS011;49111;51.028;4.218;2023-02-28T08:37:34;8.35;;;4.80;;
62911;SDS011;49111;51.028;4.218;2023-02-28T08:40:00;8.00;;;3.75;;
62911;SDS011;49111;51.028;4.218;2023-02-28T08:42:25;8.45;;;4.20;;
62911;SDS011;49111;51.028;4.218;2023-02-28T08:44:51;5.95;;;3.40;;
62911;SDS011;49111;51.028;4.218;2023-02-28T08:47:17;7.25;;;4.03;;
62911;SDS011;49111;51.028;4.218;2023-02-28T08:49:43;3.97;;;2.63;;
62911;SDS011;49111;51.028;4.218;2023-02-28T08:52:09;4.60;;;3.30;;
62911;SDS011;49111;51.028;4.218;2023-02-28T08:54:35;5.20;;;3.75;;
62911;SDS011;49111;51.028;4.218;2023-02-28T08:57:01;6.80;;;3.65;;
62911;SDS011;49111;51.028;4.218;2023-02-28T08:59:28;5.70;;;3.45;;
62911;SDS011;49111;51.028;4.218;2023-02-28T09:01:55;5.70;;;3.38;;
62911;SDS011;49111;51.028;4.218;2023-02-28T09:04:21;5.80;;;3.33;;
62911;SDS011;49111;51.028;4.218;2023-02-28T09:06:47;7.70;;;3.20;;
62911;SDS011;49111;51.028;4.218;2023-02-28T09:09:14;5.55;;;3.20;;
62911;SDS011;49111;51.028;4.218;2023-02-28T09:11:41;5.63;;;3.15;;
62911;SDS011;49111;51.028;4.218;2023-02-28T09:14:06;4.68;;;2.90;;
62911;SDS011;49111;51.028;4.218;2023-02-28T09:16:33;6.25;;;3.45;;
62911;SDS011;49111;51.028;4.218;2023-02-28T09:18:59;3.90;;;2.42;;
62911;SDS011;49111;51.028;4.218;2023-02-28T09:21:25;5.53;;;3.20;;
62911;SDS011;49111;51.028;4.218;2023-02-28T09:23:51;4.72;;;3.00;;
62911;SDS011;49111;51.028;4.218;2023-02-28T09:26:19;4.55;;;3.13;;
62911;SDS011;49111;51.028;4.218;2023-02-28T09:28:47;5.10;;;2.60;;
62911;SDS011;49111;51.028;4.218;2023-02-28T09:31:14;4.25;;;2.78;;
62911;SDS011;49111;51.028;4.218;2023-02-28T09:33:41;4.60;;;2.70;;
62911;SDS011;49111;51.028;4.218;2023-02-28T09:36:07;4.28;;;2.97;;
62911;SDS011;49111;51.028;4.218;2023-02-28T09:38:33;7.82;;;2.92;;
62911;SDS011;49111;51.028;4.218;2023-02-28T09:41:03;6.63;;;3.03;;
62911;SDS011;49111;51.028;4.218;2023-02-28T09:43:37;5.45;;;3.00;;
62911;SDS011;49111;51.028;4.218;2023-02-28T09:46:27;3.67;;;2.53;;
62911;SDS011;49111;51.028;4.218;2023-02-28T09:49:16;4.57;;;2.50;;
62911;SDS011;49111;51.028;4.218;2023-02-28T09:51:55;2.83;;;2.03;;
62911;SDS011;49111;51.028;4.218;2023-02-28T09:54:29;3.38;;;2.03;;
62911;SDS011;49111;51.028;4.218;2023-02-28T09:56:58;3.25;;;2.13;;
62911;SDS011;49111;51.028;4.218;2023-02-28T10:05:17;4.45;;;2.80;;
62911;SDS011;49111;51.028;4.218;2023-02-28T10:10:44;2.72;;;2.17;;
62911;SDS011;49111;51.028;4.218;2023-02-28T10:16:43;3.40;;;2.30;;
62911;SDS011;49111;51.028;4.218;2023-02-28T10:19:22;5.40;;;2.83;;
62911;SDS011;49111;51.028;4.218;2023-02-28T10:22:03;3.88;;;2.38;;
62911;SDS011;49111;51.028;4.218;2023-02-28T10:24:38;2.28;;;2.00;;
62911;SDS011;49111;51.028;4.218;2023-02-28T10:27:17;5.78;;;2.40;;
62911;SDS011;49111;51.028;4.218;2023-02-28T10:29:48;4.47;;;2.00;;
62911;SDS011;49111;51.028;4.218;2023-02-28T10:32:16;2.97;;;2.08;;
62911;SDS011;49111;51.028;4.218;2023-02-28T10:34:44;2.55;;;2.08;;
62911;SDS011;49111;51.028;4.218;2023-02-28T10:37:15;2.13;;;1.90;;
62911;SDS011;49111;51.028;4.218;2023-02-28T10:39:43;3.58;;;2.15;;
62911;SDS011;49111;51.028;4.218;2023-02-28T10:47:41;4.60;;;2.15;;
62911;SDS011;49111;51.028;4.218;2023-02-28T11:03:54;2.38;;;2.03;;
62911;SDS011;49111;51.028;4.218;2023-02-28T11:08:53;3.40;;;2.47;;
62911;SDS011;49111;51.028;4.218;2023-02-28T11:11:25;9.48;;;4.68;;
62911;SDS011;49111;51.028;4.218;2023-02-28T11:13:54;7.20;;;4.50;;
62911;SDS011;49111;51.028;4.218;2023-02-28T11:16:30;5.82;;;3.00;;
62911;SDS011;49111;51.028;4.218;2023-02-28T11:19:00;3.35;;;1.90;;
62911;SDS011;49111;51.028;4.218;2023-02-28T11:21:30;3.40;;;2.20;;
62911;SDS011;49111;51.028;4.218;2023-02-28T11:26:54;2.20;;;2.00;;
62911;SDS011;49111;51.028;4.218;2023-02-28T11:34:33;6.22;;;2.58;;
62911;SDS011;49111;51.028;4.218;2023-02-28T11:37:01;3.75;;;1.60;;
62911;SDS011;49111;51.028;4.218;2023-02-28T11:39:30;3.47;;;2.40;;
62911;SDS011;49111;51.028;4.218;2023-02-28T11:47:26;2.25;;;2.05;;
62911;SDS011;49111;51.028;4.218;2023-02-28T11:52:53;3.00;;;2.00;;
62911;SDS011;49111;51.028;4.218;2023-02-28T11:55:24;1.95;;;1.55;;
62911;SDS011;49111;51.028;4.218;2023-02-28T12:03:15;3.15;;;2.47;;
62911;SDS011;49111;51.028;4.218;2023-02-28T12:11:25;3.13;;;2.25;;
62911;SDS011;49111;51.028;4.218;2023-02-28T12:27:55;3.13;;;2.10;;
62911;SDS011;49111;51.028;4.218;2023-02-28T12:30:28;2.40;;;1.77;;
62911;SDS011;49111;51.028;4.218;2023-02-28T12:35:39;3.72;;;2.45;;
62911;SDS011;49111;51.028;4.218;2023-02-28T12:38:17;2.33;;;2.13;;
62911;SDS011;49111;51.028;4.218;2023-02-28T12:40:58;5.13;;;2.45;;
62911;SDS011;49111;51.028;4.218;2023-02-28T12:43:33;3.65;;;2.33;;
62911;SDS011;49111;51.028;4.218;2023-02-28T12:48:46;3.33;;;2.55;;
62911;SDS011;49111;51.028;4.218;2023-02-28T12:51:16;2.80;;;1.98;;
62911;SDS011;49111;51.028;4.218;2023-02-28T12:53:52;6.47;;;2.75;;
62911;SDS011;49111;51.028;4.218;2023-02-28T12:56:29;4.00;;;2.20;;
62911;SDS011;49111;51.028;4.218;2023-02-28T13:02:17;3.30;;;2.45;;
62911;SDS011;49111;51.028;4.218;2023-02-28T13:10:45;3.83;;;2.47;;
62911;SDS011;49111;51.028;4.218;2023-02-28T13:13:19;3.72;;;2.22;;
62911;SDS011;49111;51.028;4.218;2023-02-28T13:18:43;5.88;;;2.30;;
62911;SDS011;49111;51.028;4.218;2023-02-28T13:21:27;2.85;;;2.22;;
62911;SDS011;49111;51.028;4.218;2023-02-28T13:29:00;4.68;;;2.50;;
62911;SDS011;49111;51.028;4.218;2023-02-28T13:34:34;3.00;;;2.30;;
62911;SDS011;49111;51.028;4.218;2023-02-28T13:39:45;3.13;;;2.38;;
62911;SDS011;49111;51.028;4.218;2023-02-28T13:42:23;3.30;;;2.70;;
62911;SDS011;49111;51.028;4.218;2023-02-28T13:47:39;3.88;;;2.65;;
62911;SDS011;49111;51.028;4.218;2023-02-28T13:50:20;2.72;;;2.40;;
62911;SDS011;49111;51.028;4.218;2023-02-28T13:55:34;4.13;;;2.45;;
62911;SDS011;49111;51.028;4.218;2023-02-28T14:07:03;3.92;;;3.00;;
62911;SDS011;49111;51.028;4.218;2023-02-28T14:09:37;4.60;;;2.97;;
62911;SDS011;49111;51.028;4.218;2023-02-28T14:20:55;2.88;;;2.33;;
62911;SDS011;49111;51.028;4.218;2023-02-28T14:36:39;3.72;;;2.55;;
62911;SDS011;49111;51.028;4.218;2023-02-28T14:39:15;6.57;;;2.95;;
62911;SDS011;49111;51.028;4.218;2023-02-28T14:41:44;3.80;;;2.47;;
62911;SDS011;49111;51.028;4.218;2023-02-28T14:46:51;5.22;;;2.85;;
62911;SDS011;49111;51.028;4.218;2023-02-28T14:49:29;3.75;;;2.88;;
62911;SDS011;49111;51.028;4.218;2023-02-28T14:52:15;5.40;;;2.80;;
62911;SDS011;49111;51.028;4.218;2023-02-28T14:54:45;4.32;;;2.83;;
62911;SDS011;49111;51.028;4.218;2023-02-28T14:57:27;5.75;;;2.80;;
62911;SDS011;49111;51.028;4.218;2023-02-28T15:00:14;4.18;;;2.65;;
62911;SDS011;49111;51.028;4.218;2023-02-28T15:02:50;3.88;;;2.63;;
62911;SDS011;49111;51.028;4.218;2023-02-28T15:08:00;4.47;;;2.80;;
62911;SDS011;49111;51.028;4.218;2023-02-28T15:10:37;4.88;;;2.80;;
62911;SDS011;49111;51.028;4.218;2023-02-28T15:13:06;4.53;;;3.15;;
62911;SDS011;49111;51.028;4.218;2023-02-28T15:18:41;6.30;;;2.92;;
62911;SDS011;49111;51.028;4.218;2023-02-28T15:21:24;4.88;;;2.50;;
62911;SDS011;49111;51.028;4.218;2023-02-28T15:23:51;5.43;;;2.67;;
62911;SDS011;49111;51.028;4.218;2023-02-28T15:26:21;6.13;;;2.67;;
62911;SDS011;49111;51.028;4.218;2023-02-28T15:29:00;3.72;;;2.65;;
62911;SDS011;49111;51.028;4.218;2023-02-28T15:31:37;5.28;;;3.05;;
62911;SDS011;49111;51.028;4.218;2023-02-28T15:34:13;3.92;;;2.88;;
62911;SDS011;49111;51.028;4.218;2023-02-28T15:36:53;3.67;;;3.00;;
62911;SDS011;49111;51.028;4.218;2023-02-28T15:39:26;7.80;;;3.53;;
62911;SDS011;49111;51.028;4.218;2023-02-28T15:44:57;3.58;;;3.15;;
62911;SDS011;49111;51.028;4.218;2023-02-28T15:47:26;4.80;;;2.65;;
62911;SDS011;49111;51.028;4.218;2023-02-28T15:52:22;4.10;;;2.63;;
62911;SDS011;49111;51.028;4.218;2023-02-28T15:54:56;3.70;;;2.95;;
62911;SDS011;49111;51.028;4.218;2023-02-28T15:57:26;4.55;;;3.13;;
62911;SDS011;49111;51.028;4.218;2023-02-28T15:59:58;3.88;;;2.45;;
62911;SDS011;49111;51.028;4.218;2023-02-28T16:02:37;6.43;;;3.05;;
62911;SDS011;49111;51.028;4.218;2023-02-28T16:07:35;3.22;;;2.92;;
62911;SDS011;49111;51.028;4.218;2023-02-28T16:10:06;4.18;;;2.90;;
62911;SDS011;49111;51.028;4.218;2023-02-28T16:12:34;4.40;;;2.65;;
62911;SDS011;49111;51.028;4.218;2023-02-28T16:15:03;7.15;;;3.42;;
62911;SDS011;49111;51.028;4.218;2023-02-28T16:17:34;3.22;;;2.92;;
62911;SDS011;49111;51.028;4.218;2023-02-28T16:20:05;3.70;;;2.95;;
62911;SDS011;49111;51.028;4.218;2023-02-28T16:22:57;5.07;;;2.67;;
62911;SDS011;49111;51.028;4.218;2023-02-28T16:25:33;4.25;;;3.10;;
62911;SDS011;49111;51.028;4.218;2023-02-28T16:28:04;5.13;;;2.78;;
62911;SDS011;49111;51.028;4.218;2023-02-28T16:30:37;8.43;;;3.47;;
62911;SDS011;49111;51.028;4.218;2023-02-28T16:33:03;4.57;;;3.00;;
62911;SDS011;49111;51.028;4.218;2023-02-28T16:35:29;4.00;;;2.92;;
62911;SDS011;49111;51.028;4.218;2023-02-28T16:37:54;4.72;;;2.97;;
62911;SDS011;49111;51.028;4.218;2023-02-28T16:40:22;5.60;;;3.05;;
62911;SDS011;49111;51.028;4.218;2023-02-28T16:42:51;3.88;;;2.80;;
62911;SDS011;49111;51.028;4.218;2023-02-28T16:45:23;3.53;;;2.50;;
62911;SDS011;49111;51.028;4.218;2023-02-28T16:47:54;5.40;;;3.00;;
62911;SDS011;49111;51.028;4.218;2023-02-28T16:50:21;5.93;;;3.70;;
62911;SDS011;49111;51.028;4.218;2023-02-28T16:52:48;5.43;;;3.78;;
62911;SDS011;49111;51.028;4.218;2023-02-28T16:55:17;5.22;;;3.92;;
62911;SDS011;49111;51.028;4.218;2023-02-28T16:57:50;4.55;;;3.58;;
62911;SDS011;49111;51.028;4.218;2023-02-28T17:00:21;5.80;;;3.47;;
62911;SDS011;49111;51.028;4.218;2023-02-28T17:02:48;5.53;;;3.92;;
62911;SDS011;49111;51.028;4.218;2023-02-28T17:05:14;6.40;;;3.20;;
62911;SDS011;49111;51.028;4.218;2023-02-28T17:07:40;5.35;;;3.17;;
62911;SDS011;49111;51.028;4.218;2023-02-28T17:12:39;4.15;;;3.20;;
62911;SDS011;49111;51.028;4.218;2023-02-28T17:15:05;4.35;;;3.28;;
62911;SDS011;49111;51.028;4.218;2023-02-28T17:17:31;4.20;;;3.35;;
62911;SDS011;49111;51.028;4.218;2023-02-28T17:19:57;5.80;;;3.78;;
62911;SDS011;49111;51.028;4.218;2023-02-28T17:22:23;4.18;;;2.97;;
62911;SDS011;49111;51.028;4.218;2023-02-28T17:24:51;5.07;;;3.75;;
62911;SDS011;49111;51.028;4.218;2023-02-28T17:27:20;4.82;;;3.60;;
62911;SDS011;49111;51.028;4.218;2023-02-28T17:29:47;5.22;;;4.20;;
62911;SDS011;49111;51.028;4.218;2023-02-28T17:32:12;7.53;;;3.25;;
62911;SDS011;49111;51.028;4.218;2023-02-28T17:34:38;4.22;;;3.55;;
62911;SDS011;49111;51.028;4.218;2023-02-28T17:37:04;4.47;;;3.75;;
62911;SDS011;49111;51.028;4.218;2023-02-28T17:39:30;7.22;;;3.95;;
62911;SDS011;49111;51.028;4.218;2023-02-28T17:41:56;5.55;;;4.05;;
62911;SDS011;49111;51.028;4.218;2023-02-28T17:44:22;7.00;;;3.83;;
62911;SDS011;49111;51.028;4.218;2023-02-28T17:46:49;6.65;;;3.97;;
62911;SDS011;49111;51.028;4.218;2023-02-28T17:49:16;6.10;;;4.32;;
62911;SDS011;49111;51.028;4.218;2023-02-28T17:51:43;4.63;;;3.75;;
62911;SDS011;49111;51.028;4.218;2023-02-28T17:54:09;5.75;;;3.40;;
62911;SDS011;49111;51.028;4.218;2023-02-28T17:56:45;4.82;;;3.83;;
62911;SDS011;49111;51.028;4.218;2023-02-28T17:59:12;4.95;;;3.47;;
62911;SDS011;49111;51.028;4.218;2023-02-28T18:01:42;4.45;;;4.05;;
62911;SDS011;49111;51.028;4.218;2023-02-28T18:04:08;5.80;;;4.68;;
62911;SDS011;49111;51.028;4.218;2023-02-28T18:06:38;6.07;;;4.85;;
62911;SDS011;49111;51.028;4.218;2023-02-28T18:09:16;4.72;;;3.50;;
62911;SDS011;49111;51.028;4.218;2023-02-28T18:11:45;5.57;;;4.40;;
62911;SDS011;49111;51.028;4.218;2023-02-28T18:14:12;5.75;;;3.97;;
62911;SDS011;49111;51.028;4.218;2023-02-28T18:16:39;8.00;;;4.20;;
62911;SDS011;49111;51.028;4.218;2023-02-28T18:19:05;6.15;;;4.45;;
62911;SDS011;49111;51.028;4.218;2023-02-28T18:21:32;4.80;;;3.92;;
62911;SDS011;49111;51.028;4.218;2023-02-28T18:23:59;6.93;;;3.95;;
62911;SDS011;49111;51.028;4.218;2023-02-28T18:26:25;5.85;;;3.58;;
62911;SDS011;49111;51.028;4.218;2023-02-28T18:28:50;9.20;;;3.83;;
62911;SDS011;49111;51.028;4.218;2023-02-28T18:31:17;5.53;;;4.30;;
62911;SDS011;49111;51.028;4.218;2023-02-28T18:33:48;7.75;;;4.88;;
62911;SDS011;49111;51.028;4.218;2023-02-28T18:36:16;6.53;;;5.10;;
62911;SDS011;49111;51.028;4.218;2023-02-28T18:38:43;8.52;;;4.88;;
62911;SDS011;49111;51.028;4.218;2023-02-28T18:41:10;7.18;;;5.38;;
62911;SDS011;49111;51.028;4.218;2023-02-28T18:43:36;7.65;;;5.55;;
62911;SDS011;49111;51.028;4.218;2023-02-28T18:46:09;9.32;;;5.00;;
62911;SDS011;49111;51.028;4.218;2023-02-28T18:48:37;8.77;;;6.40;;
62911;SDS011;49111;51.028;4.218;2023-02-28T18:51:10;7.78;;;5.25;;
62911;SDS011;49111;51.028;4.218;2023-02-28T18:53:38;9.00;;;5.85;;
62911;SDS011;49111;51.028;4.218;2023-02-28T18:56:05;7.82;;;5.45;;
62911;SDS011;49111;51.028;4.218;2023-02-28T18:58:32;8.13;;;5.35;;
62911;SDS011;49111;51.028;4.218;2023-02-28T19:01:02;9.98;;;5.75;;
62911;SDS011;49111;51.028;4.218;2023-02-28T19:03:28;7.28;;;5.45;;
62911;SDS011;49111;51.028;4.218;2023-02-28T19:05:58;11.23;;;6.22;;
62911;SDS011;49111;51.028;4.218;2023-02-28T19:08:25;9.40;;;6.28;;
62911;SDS011;49111;51.028;4.218;2023-02-28T19:10:51;10.43;;;6.68;;
62911;SDS011;49111;51.028;4.218;2023-02-28T19:13:17;8.95;;;6.28;;
62911;SDS011;49111;51.028;4.218;2023-02-28T19:15:44;10.00;;;7.13;;
62911;SDS011;49111;51.028;4.218;2023-02-28T19:18:10;10.40;;;5.57;;
62911;SDS011;49111;51.028;4.218;2023-02-28T19:20:37;8.98;;;6.10;;
62911;SDS011;49111;51.028;4.218;2023-02-28T19:23:03;6.93;;;5.72;;
62911;SDS011;49111;51.028;4.218;2023-02-28T19:25:29;7.30;;;5.90;;
